createdAt,value
2019-01-14T00:01:07.062Z,99483.27
2019-01-14T00:06:29.251Z,99507.33
2019-01-14T00:11:51.451Z,99521.08
2019-01-14T00:16:54.658Z,99379.61
2019-01-14T00:22:16.916Z,99528.34
2019-01-14T00:27:19.591Z,99550.84
2019-01-14T00:32:22.310Z,99576.56
2019-01-14T00:37:44.490Z,99581.84
2019-01-14T00:42:47.367Z,99590.14
2019-01-14T00:48:09.561Z,99600.52
2019-01-14T00:53:12.234Z,99631.08
2019-01-14T00:58:14.907Z,99637.27
2019-01-14T01:03:30.666Z,99632.19
2019-01-14T01:08:33.373Z,99663.39
2019-01-14T01:13:56.020Z,99687.94
2019-01-14T01:18:58.693Z,99309.84
2019-01-14T01:24:01.386Z,99692.47
2019-01-14T01:29:23.676Z,99707.14
2019-01-14T01:34:45.879Z,99710.67
2019-01-14T01:40:29.318Z,99446.36
2019-01-14T01:45:51.537Z,99732.05
2019-01-14T01:50:54.224Z,99752.22
2019-01-14T01:56:16.407Z,99766.00
2019-01-14T02:01:19.123Z,99778.51
2019-01-14T02:06:41.331Z,99793.02
2019-01-14T02:12:03.529Z,99806.93
2019-01-14T02:17:25.747Z,99806.60
2019-01-14T02:22:47.935Z,99831.50
2019-01-14T02:28:10.119Z,99836.42
2019-01-14T02:33:12.806Z,99833.80
2019-01-14T02:38:35.022Z,99851.22
2019-01-14T02:43:57.206Z,99863.52
2019-01-14T02:49:19.377Z,99854.96
2019-01-14T02:54:41.567Z,99886.22
2019-01-14T02:59:56.378Z,99880.92
2019-01-14T03:05:18.561Z,99666.48
2019-01-14T03:10:21.338Z,99909.14
2019-01-14T03:15:24.009Z,99918.42
2019-01-14T03:20:46.187Z,99924.23
2019-01-14T03:26:08.372Z,99953.89
2019-01-14T03:31:30.550Z,99941.02
2019-01-14T03:36:33.233Z,99956.86
2019-01-14T03:41:55.405Z,99960.44
2019-01-14T03:46:58.085Z,99964.74
2019-01-14T03:52:20.259Z,99962.78
2019-01-14T03:57:42.517Z,99554.45
2019-01-14T04:02:45.354Z,99992.64
2019-01-14T04:08:14.989Z,99987.93
2019-01-14T04:13:37.154Z,99738.38
2019-01-14T04:18:59.328Z,100025.70
2019-01-14T04:24:21.519Z,100029.36
2019-01-14T04:29:43.702Z,99762.63
2019-01-14T04:35:06.365Z,100030.62
2019-01-14T04:40:09.251Z,100027.83
2019-01-14T04:45:12.255Z,100008.72
2019-01-14T04:50:34.427Z,100008.91
2019-01-14T04:55:37.077Z,100012.69
2019-01-14T05:00:39.745Z,100008.73
2019-01-14T05:06:01.922Z,100019.17
2019-01-14T05:11:24.098Z,99755.66
2019-01-14T05:16:46.271Z,100019.98
2019-01-14T05:22:08.451Z,100027.52
2019-01-14T05:27:11.109Z,100041.14
2019-01-14T05:32:33.290Z,100042.36
2019-01-14T05:37:37.552Z,100053.52
2019-01-14T05:43:00.021Z,100054.44
2019-01-14T05:48:02.700Z,100065.16
2019-01-14T05:53:24.864Z,100062.91
2019-01-14T05:58:47.042Z,100057.94
2019-01-14T06:04:02.997Z,99786.55
2019-01-14T06:09:25.164Z,100133.23
2019-01-14T06:14:47.338Z,100129.53
2019-01-14T06:20:11.649Z,99919.59
2019-01-14T06:25:35.641Z,99845.36
2019-01-14T06:30:57.817Z,100157.34
2019-01-14T06:36:19.992Z,100044.28
2019-01-14T06:41:42.168Z,100161.64
2019-01-14T06:47:04.338Z,100044.41
2019-01-14T06:52:07.004Z,100168.44
2019-01-14T06:57:29.175Z,100173.87
2019-01-14T07:02:44.263Z,100204.71
2019-01-14T07:07:46.925Z,100221.19
2019-01-14T07:13:09.217Z,100216.55
2019-01-14T07:18:31.394Z,100224.89
2019-01-14T07:23:53.561Z,100233.12
2019-01-14T07:29:15.742Z,99862.72
2019-01-14T07:34:37.906Z,100232.36
2019-01-14T07:40:00.242Z,100242.00
2019-01-14T07:45:22.440Z,100274.45
2019-01-14T07:50:44.632Z,100253.92
2019-01-14T07:56:07.021Z,100286.09
2019-01-14T08:01:21.947Z,100309.03
2019-01-14T08:06:44.128Z,99988.64
2019-01-14T08:12:06.299Z,100226.72
2019-01-14T08:17:28.609Z,100320.34
2019-01-14T08:22:50.772Z,100329.17
2019-01-14T08:28:12.943Z,100339.98
2019-01-14T08:33:35.106Z,100336.14
2019-01-14T08:38:57.278Z,100210.53
2019-01-14T08:49:51.239Z,100371.02
2019-01-14T08:55:13.417Z,100365.36
2019-01-14T09:00:28.344Z,100386.37
2019-01-14T09:05:50.765Z,100336.15
2019-01-14T09:11:12.937Z,100384.72
2019-01-14T09:16:35.110Z,100079.28
2019-01-14T09:21:57.281Z,100401.38
2019-01-14T09:27:19.481Z,100396.45
2019-01-14T09:32:22.315Z,100404.12
2019-01-14T09:37:44.483Z,100404.12
2019-01-14T09:43:06.648Z,100418.81
2019-01-14T09:48:28.818Z,100423.94
2019-01-14T09:53:50.992Z,100201.06
2019-01-14T09:59:13.166Z,100193.22
2019-01-14T10:04:28.662Z,100434.52
2019-01-14T10:09:50.829Z,100430.82
2019-01-14T10:14:53.492Z,100445.38
2019-01-14T10:20:15.656Z,100437.42
2019-01-14T10:25:37.925Z,100312.91
2019-01-14T10:31:00.117Z,100438.69
2019-01-14T10:36:22.291Z,100450.80
2019-01-14T10:41:44.461Z,100330.48
2019-01-14T10:47:06.610Z,100348.94
2019-01-14T10:52:10.748Z,100442.52
2019-01-14T10:57:32.909Z,100437.30
2019-01-14T11:02:48.350Z,100450.72
2019-01-14T11:08:10.591Z,100458.19
2019-01-14T11:13:32.766Z,100448.94
2019-01-14T11:18:54.932Z,100486.74
2019-01-14T11:24:17.093Z,100497.63
2019-01-14T11:29:51.240Z,100482.88
2019-01-14T11:35:13.413Z,100211.14
2019-01-14T11:40:37.735Z,100489.91
2019-01-14T11:45:59.903Z,100474.28
2019-01-14T11:51:22.078Z,100481.75
2019-01-14T11:56:44.463Z,100502.20
2019-01-14T12:01:47.141Z,100504.25
2019-01-14T12:07:09.310Z,100494.00
2019-01-14T12:12:31.487Z,100507.13
2019-01-14T12:17:53.657Z,100517.27
2019-01-14T12:23:15.842Z,100536.91
2019-01-14T12:28:38.010Z,100532.12
2019-01-14T12:34:00.218Z,100521.95
2019-01-14T12:39:22.396Z,100505.39
2019-01-14T12:44:44.564Z,100525.91
2019-01-14T12:50:09.182Z,100533.94
2019-01-14T12:55:31.365Z,100562.37
2019-01-14T13:00:46.935Z,100562.80
2019-01-14T13:06:09.106Z,100563.57
2019-01-14T13:11:31.272Z,100564.57
2019-01-14T13:16:53.512Z,100558.19
2019-01-14T13:22:15.694Z,100563.90
2019-01-14T13:33:27.123Z,100593.19
2019-01-14T13:38:49.296Z,100603.28
2019-01-14T13:44:11.467Z,100629.08
2019-01-14T13:49:33.636Z,100629.02
2019-01-14T13:54:55.807Z,100510.77
2019-01-14T14:00:12.573Z,100648.06
2019-01-14T14:05:15.234Z,100640.20
2019-01-14T14:10:37.411Z,100661.38
2019-01-14T14:15:59.593Z,100678.81
2019-01-14T14:21:21.780Z,100677.92
2019-01-14T14:26:43.960Z,100697.36
2019-01-14T14:32:06.125Z,100700.76
2019-01-14T14:37:28.309Z,100705.85
2019-01-14T14:42:50.478Z,100722.09
2019-01-14T14:48:12.655Z,100745.54
2019-01-14T14:53:34.844Z,100757.78
2019-01-14T14:58:57.019Z,100741.56
2019-01-14T15:04:11.851Z,100746.20
2019-01-14T15:09:14.521Z,100800.03
2019-01-14T15:14:36.703Z,100786.67
2019-01-14T15:19:58.873Z,100804.13
2019-01-14T15:25:21.049Z,100808.48
2019-01-14T15:30:43.228Z,100575.08
2019-01-14T15:36:05.390Z,100848.19
2019-01-14T15:41:27.571Z,100719.45
2019-01-14T15:46:49.737Z,100717.63
2019-01-14T15:52:11.911Z,100841.93
2019-01-14T15:57:34.099Z,100860.25
2019-01-14T16:02:49.517Z,100624.31
2019-01-14T16:08:11.788Z,100741.67
2019-01-14T16:13:33.957Z,100887.07
2019-01-14T16:18:56.132Z,100906.53
2019-01-14T16:24:18.294Z,100888.38
2019-01-14T16:29:20.957Z,100830.81
2019-01-14T16:34:43.141Z,100888.03
2019-01-14T16:40:05.368Z,100606.75
2019-01-14T16:45:27.686Z,100860.57
2019-01-14T16:50:30.343Z,100896.25
2019-01-14T16:56:12.122Z,100921.26
2019-01-14T17:01:27.076Z,100924.23
2019-01-14T17:06:49.232Z,100944.84
2019-01-14T17:12:11.408Z,100951.78
2019-01-14T17:17:33.579Z,100944.48
2019-01-14T17:22:55.780Z,100938.80
2019-01-14T17:27:58.463Z,100947.86
2019-01-14T17:33:20.633Z,100952.92
2019-01-14T17:38:42.814Z,100970.67
2019-01-14T17:44:04.991Z,100966.42
2019-01-14T17:49:27.156Z,100969.84
2019-01-14T17:54:49.458Z,100994.40
2019-01-14T18:00:07.075Z,100975.83
2019-01-14T18:05:29.246Z,100985.40
2019-01-14T18:10:51.413Z,100869.20
2019-01-14T18:16:13.615Z,101009.95
2019-01-14T18:21:35.784Z,100994.39
2019-01-14T18:26:58.105Z,100950.98
2019-01-14T18:32:20.239Z,100837.80
2019-01-14T18:37:42.537Z,101010.48
2019-01-14T18:43:05.043Z,101009.64
2019-01-14T18:48:27.431Z,101045.07
2019-01-14T18:53:49.602Z,101041.61
2019-01-14T18:59:11.786Z,101034.28
2019-01-14T19:04:27.692Z,101048.99
2019-01-14T19:09:49.867Z,101061.53
2019-01-14T19:15:53.782Z,101060.23
2019-01-14T19:21:15.997Z,100942.14
2019-01-14T19:26:38.416Z,101057.99
2019-01-14T19:32:00.577Z,101063.59
2019-01-14T19:37:22.761Z,100915.41
2019-01-14T19:42:25.456Z,101091.23
2019-01-14T19:47:47.661Z,101070.09
2019-01-14T19:53:09.849Z,100964.98
2019-01-14T19:58:32.022Z,101075.26
2019-01-14T20:03:47.763Z,101098.12
2019-01-14T20:09:10.202Z,101123.55
2019-01-14T20:14:12.904Z,101109.66
2019-01-14T20:19:35.107Z,101110.46
2019-01-14T20:24:57.294Z,101148.05
2019-01-14T20:30:21.298Z,101147.98
2019-01-14T20:35:43.480Z,101029.43
2019-01-14T20:41:05.654Z,101168.68
2019-01-14T20:46:27.827Z,101141.47
2019-01-14T20:51:50.007Z,101127.23
2019-01-14T20:57:47.539Z,100847.78
2019-01-14T21:02:53.032Z,101143.05
2019-01-14T21:08:15.310Z,101133.95
2019-01-14T21:13:37.587Z,101145.63
2019-01-14T21:18:59.756Z,101005.03
2019-01-14T21:24:21.941Z,101125.25
2019-01-14T21:29:26.009Z,101125.63
2019-01-14T21:34:48.684Z,101129.52
2019-01-14T21:39:51.366Z,100840.48
2019-01-14T21:45:14.037Z,101147.66
2019-01-14T21:50:36.209Z,100899.89
2019-01-14T21:55:58.373Z,101175.27
2019-01-14T22:01:01.057Z,101155.78
2019-01-14T22:06:23.227Z,101152.45
2019-01-14T22:11:45.410Z,101155.05
2019-01-14T22:17:07.606Z,101162.45
2019-01-14T22:22:29.775Z,101080.58
2019-01-14T22:27:51.958Z,101186.63
2019-01-14T22:33:14.144Z,101192.68
2019-01-14T22:38:36.321Z,101214.69
2019-01-14T22:43:58.497Z,101169.36
2019-01-14T22:49:01.153Z,101218.98
2019-01-14T22:54:23.390Z,101196.12
2019-01-14T22:59:45.685Z,101209.96
2019-01-14T23:05:07.887Z,101077.13
2019-01-14T23:10:30.069Z,101196.19
2019-01-14T23:15:52.259Z,101065.06
2019-01-14T23:21:14.428Z,101204.84
2019-01-14T23:26:36.610Z,101183.67
2019-01-14T23:31:58.799Z,101203.09
2019-01-14T23:37:20.984Z,101103.44
2019-01-14T23:42:43.177Z,101219.53
2019-01-14T23:48:05.369Z,101217.39
2019-01-14T23:53:27.672Z,101214.78
2019-01-14T23:58:49.829Z,101211.75
